sensor_id;sensor_type;location;lat;lon;timestamp;P1;durP1;ratioP1;P2;durP2;ratioP2
43933;SDS011;59081;42.706;23.306;2022-10-17T00:01:01;16.00;;;10.07;;
43933;SDS011;59081;42.706;23.306;2022-10-17T00:03:27;15.90;;;9.80;;
43933;SDS011;59081;42.706;23.306;2022-10-17T00:05:53;18.60;;;9.75;;
43933;SDS011;59081;42.706;23.306;2022-10-17T00:08:19;19.17;;;9.77;;
43933;SDS011;59081;42.706;23.306;2022-10-17T00:10:45;16.33;;;9.35;;
43933;SDS011;59081;42.706;23.306;2022-10-17T00:13:18;17.38;;;9.65;;
43933;SDS011;59081;42.706;23.306;2022-10-17T00:15:44;16.05;;;9.73;;
43933;SDS011;59081;42.706;23.306;2022-10-17T00:18:10;15.48;;;9.57;;
43933;SDS011;59081;42.706;23.306;2022-10-17T00:20:35;16.95;;;9.38;;
43933;SDS011;59081;42.706;23.306;2022-10-17T00:23:01;21.73;;;9.95;;
43933;SDS011;59081;42.706;23.306;2022-10-17T00:25:26;16.95;;;8.98;;
43933;SDS011;59081;42.706;23.306;2022-10-17T00:27:52;16.67;;;9.80;;
43933;SDS011;59081;42.706;23.306;2022-10-17T00:30:17;14.75;;;9.55;;
43933;SDS011;59081;42.706;23.306;2022-10-17T00:32:43;16.45;;;10.30;;
43933;SDS011;59081;42.706;23.306;2022-10-17T00:35:08;14.93;;;9.00;;
43933;SDS011;59081;42.706;23.306;2022-10-17T00:37:34;21.00;;;10.52;;
43933;SDS011;59081;42.706;23.306;2022-10-17T00:40:00;18.45;;;10.65;;
43933;SDS011;59081;42.706;23.306;2022-10-17T00:42:25;24.55;;;12.02;;
43933;SDS011;59081;42.706;23.306;2022-10-17T00:45:00;17.38;;;10.27;;
43933;SDS011;59081;42.706;23.306;2022-10-17T00:47:44;16.52;;;9.35;;
43933;SDS011;59081;42.706;23.306;2022-10-17T00:50:15;18.52;;;10.65;;
43933;SDS011;59081;42.706;23.306;2022-10-17T00:52:41;15.57;;;9.38;;
43933;SDS011;59081;42.706;23.306;2022-10-17T00:55:11;17.33;;;10.45;;
43933;SDS011;59081;42.706;23.306;2022-10-17T00:57:53;18.15;;;9.98;;
43933;SDS011;59081;42.706;23.306;2022-10-17T01:00:20;21.08;;;10.30;;
43933;SDS011;59081;42.706;23.306;2022-10-17T01:02:46;22.80;;;12.48;;
43933;SDS011;59081;42.706;23.306;2022-10-17T01:05:13;36.45;;;11.70;;
43933;SDS011;59081;42.706;23.306;2022-10-17T01:07:39;19.50;;;9.88;;
43933;SDS011;59081;42.706;23.306;2022-10-17T01:10:06;22.48;;;11.85;;
43933;SDS011;59081;42.706;23.306;2022-10-17T01:12:39;20.15;;;11.25;;
43933;SDS011;59081;42.706;23.306;2022-10-17T01:20:29;21.75;;;11.30;;
43933;SDS011;59081;42.706;23.306;2022-10-17T01:32:10;25.60;;;12.02;;
43933;SDS011;59081;42.706;23.306;2022-10-17T01:34:53;21.48;;;12.35;;
43933;SDS011;59081;42.706;23.306;2022-10-17T01:37:32;18.63;;;12.02;;
43933;SDS011;59081;42.706;23.306;2022-10-17T01:42:56;19.80;;;11.25;;
43933;SDS011;59081;42.706;23.306;2022-10-17T01:45:29;18.58;;;11.15;;
43933;SDS011;59081;42.706;23.306;2022-10-17T01:47:59;21.42;;;11.65;;
43933;SDS011;59081;42.706;23.306;2022-10-17T01:50:37;21.60;;;11.52;;
43933;SDS011;59081;42.706;23.306;2022-10-17T01:53:13;16.98;;;10.52;;
43933;SDS011;59081;42.706;23.306;2022-10-17T01:55:45;18.08;;;10.07;;
43933;SDS011;59081;42.706;23.306;2022-10-17T01:58:18;21.58;;;10.35;;
43933;SDS011;59081;42.706;23.306;2022-10-17T02:00:48;18.52;;;10.60;;
43933;SDS011;59081;42.706;23.306;2022-10-17T02:03:16;13.43;;;7.88;;
43933;SDS011;59081;42.706;23.306;2022-10-17T02:05:44;16.58;;;9.85;;
43933;SDS011;59081;42.706;23.306;2022-10-17T02:08:10;14.02;;;9.02;;
43933;SDS011;59081;42.706;23.306;2022-10-17T02:10:56;18.65;;;9.40;;
43933;SDS011;59081;42.706;23.306;2022-10-17T02:13:30;15.77;;;9.25;;
43933;SDS011;59081;42.706;23.306;2022-10-17T02:18:45;20.30;;;9.52;;
43933;SDS011;59081;42.706;23.306;2022-10-17T02:21:25;16.25;;;9.40;;
43933;SDS011;59081;42.706;23.306;2022-10-17T02:27:00;17.67;;;10.35;;
43933;SDS011;59081;42.706;23.306;2022-10-17T02:29:37;15.05;;;9.52;;
43933;SDS011;59081;42.706;23.306;2022-10-17T02:35:06;18.80;;;9.07;;
43933;SDS011;59081;42.706;23.306;2022-10-17T02:37:34;19.20;;;9.95;;
43933;SDS011;59081;42.706;23.306;2022-10-17T02:40:01;19.70;;;9.82;;
43933;SDS011;59081;42.706;23.306;2022-10-17T02:42:28;17.95;;;9.32;;
43933;SDS011;59081;42.706;23.306;2022-10-17T02:44:58;15.23;;;8.85;;
43933;SDS011;59081;42.706;23.306;2022-10-17T02:47:33;16.70;;;8.05;;
43933;SDS011;59081;42.706;23.306;2022-10-17T02:50:05;16.30;;;8.48;;
43933;SDS011;59081;42.706;23.306;2022-10-17T02:52:34;16.75;;;8.80;;
43933;SDS011;59081;42.706;23.306;2022-10-17T02:55:11;15.23;;;8.68;;
43933;SDS011;59081;42.706;23.306;2022-10-17T02:57:50;16.70;;;9.40;;
43933;SDS011;59081;42.706;23.306;2022-10-17T03:00:22;12.95;;;9.35;;
43933;SDS011;59081;42.706;23.306;2022-10-17T03:02:50;16.38;;;8.18;;
43933;SDS011;59081;42.706;23.306;2022-10-17T03:05:27;13.85;;;8.20;;
43933;SDS011;59081;42.706;23.306;2022-10-17T03:07:54;14.38;;;8.30;;
43933;SDS011;59081;42.706;23.306;2022-10-17T03:10:20;17.20;;;8.00;;
43933;SDS011;59081;42.706;23.306;2022-10-17T03:12:47;13.57;;;7.35;;
43933;SDS011;59081;42.706;23.306;2022-10-17T03:15:13;12.60;;;7.93;;
43933;SDS011;59081;42.706;23.306;2022-10-17T03:17:39;14.75;;;8.73;;
43933;SDS011;59081;42.706;23.306;2022-10-17T03:20:07;14.63;;;8.80;;
43933;SDS011;59081;42.706;23.306;2022-10-17T03:22:33;13.30;;;7.35;;
43933;SDS011;59081;42.706;23.306;2022-10-17T03:24:59;10.68;;;7.55;;
43933;SDS011;59081;42.706;23.306;2022-10-17T03:27:24;12.90;;;7.13;;
43933;SDS011;59081;42.706;23.306;2022-10-17T03:29:50;11.43;;;6.97;;
43933;SDS011;59081;42.706;23.306;2022-10-17T03:32:15;12.00;;;7.07;;
43933;SDS011;59081;42.706;23.306;2022-10-17T03:34:41;8.77;;;6.05;;
43933;SDS011;59081;42.706;23.306;2022-10-17T03:37:06;14.10;;;7.15;;
43933;SDS011;59081;42.706;23.306;2022-10-17T03:39:32;11.15;;;7.07;;
43933;SDS011;59081;42.706;23.306;2022-10-17T03:41:58;14.15;;;7.53;;
43933;SDS011;59081;42.706;23.306;2022-10-17T03:44:23;10.43;;;5.97;;
43933;SDS011;59081;42.706;23.306;2022-10-17T03:46:49;15.20;;;5.80;;
43933;SDS011;59081;42.706;23.306;2022-10-17T03:49:14;9.05;;;6.03;;
43933;SDS011;59081;42.706;23.306;2022-10-17T03:51:40;11.23;;;6.35;;
43933;SDS011;59081;42.706;23.306;2022-10-17T03:54:05;14.65;;;7.00;;
43933;SDS011;59081;42.706;23.306;2022-10-17T03:56:31;14.80;;;6.53;;
43933;SDS011;59081;42.706;23.306;2022-10-17T03:58:56;10.15;;;6.25;;
43933;SDS011;59081;42.706;23.306;2022-10-17T04:01:22;11.10;;;6.45;;
43933;SDS011;59081;42.706;23.306;2022-10-17T04:03:51;12.95;;;7.70;;
43933;SDS011;59081;42.706;23.306;2022-10-17T04:06:18;13.05;;;7.00;;
43933;SDS011;59081;42.706;23.306;2022-10-17T04:08:44;18.20;;;7.22;;
43933;SDS011;59081;42.706;23.306;2022-10-17T04:11:11;12.48;;;6.85;;
43933;SDS011;59081;42.706;23.306;2022-10-17T04:13:39;10.88;;;6.75;;
43933;SDS011;59081;42.706;23.306;2022-10-17T04:16:06;12.65;;;6.72;;
43933;SDS011;59081;42.706;23.306;2022-10-17T04:18:32;16.65;;;7.53;;
43933;SDS011;59081;42.706;23.306;2022-10-17T04:21:05;13.63;;;7.55;;
43933;SDS011;59081;42.706;23.306;2022-10-17T04:23:33;13.52;;;6.95;;
43933;SDS011;59081;42.706;23.306;2022-10-17T04:25:59;13.88;;;7.05;;
43933;SDS011;59081;42.706;23.306;2022-10-17T04:28:26;21.23;;;12.57;;
43933;SDS011;59081;42.706;23.306;2022-10-17T04:31:02;18.98;;;8.85;;
43933;SDS011;59081;42.706;23.306;2022-10-17T04:33:30;21.88;;;11.15;;
43933;SDS011;59081;42.706;23.306;2022-10-17T04:36:00;16.48;;;9.93;;
43933;SDS011;59081;42.706;23.306;2022-10-17T04:38:28;16.33;;;8.88;;
43933;SDS011;59081;42.706;23.306;2022-10-17T04:41:02;15.70;;;8.65;;
43933;SDS011;59081;42.706;23.306;2022-10-17T04:43:29;14.07;;;8.40;;
43933;SDS011;59081;42.706;23.306;2022-10-17T04:46:00;10.70;;;7.97;;
43933;SDS011;59081;42.706;23.306;2022-10-17T04:48:28;13.05;;;7.32;;
43933;SDS011;59081;42.706;23.306;2022-10-17T04:50:54;17.55;;;8.35;;
43933;SDS011;59081;42.706;23.306;2022-10-17T04:53:24;15.05;;;8.63;;
43933;SDS011;59081;42.706;23.306;2022-10-17T04:55:50;15.35;;;8.95;;
43933;SDS011;59081;42.706;23.306;2022-10-17T04:58:17;16.75;;;7.82;;
43933;SDS011;59081;42.706;23.306;2022-10-17T05:00:42;15.07;;;7.95;;
43933;SDS011;59081;42.706;23.306;2022-10-17T05:03:08;26.20;;;9.88;;
43933;SDS011;59081;42.706;23.306;2022-10-17T05:05:36;23.67;;;9.18;;
43933;SDS011;59081;42.706;23.306;2022-10-17T05:08:03;17.67;;;7.53;;
43933;SDS011;59081;42.706;23.306;2022-10-17T05:10:43;16.38;;;8.32;;
43933;SDS011;59081;42.706;23.306;2022-10-17T05:13:12;15.13;;;8.10;;
43933;SDS011;59081;42.706;23.306;2022-10-17T05:15:38;15.18;;;7.90;;
43933;SDS011;59081;42.706;23.306;2022-10-17T05:18:22;16.88;;;10.02;;
43933;SDS011;59081;42.706;23.306;2022-10-17T05:20:48;37.00;;;19.33;;
43933;SDS011;59081;42.706;23.306;2022-10-17T05:23:14;24.15;;;11.90;;
43933;SDS011;59081;42.706;23.306;2022-10-17T05:25:42;19.80;;;9.60;;
43933;SDS011;59081;42.706;23.306;2022-10-17T05:28:08;19.17;;;11.23;;
43933;SDS011;59081;42.706;23.306;2022-10-17T05:30:34;23.30;;;9.95;;
43933;SDS011;59081;42.706;23.306;2022-10-17T05:33:00;13.30;;;8.68;;
43933;SDS011;59081;42.706;23.306;2022-10-17T05:35:27;14.40;;;9.38;;
43933;SDS011;59081;42.706;23.306;2022-10-17T05:37:52;17.42;;;9.23;;
43933;SDS011;59081;42.706;23.306;2022-10-17T05:40:21;20.92;;;10.32;;
43933;SDS011;59081;42.706;23.306;2022-10-17T05:42:47;15.65;;;8.68;;
43933;SDS011;59081;42.706;23.306;2022-10-17T05:45:13;21.85;;;10.48;;
43933;SDS011;59081;42.706;23.306;2022-10-17T05:47:39;22.77;;;10.02;;
43933;SDS011;59081;42.706;23.306;2022-10-17T05:50:05;22.33;;;10.40;;
43933;SDS011;59081;42.706;23.306;2022-10-17T05:52:32;18.95;;;10.18;;
43933;SDS011;59081;42.706;23.306;2022-10-17T05:54:57;16.65;;;10.50;;
43933;SDS011;59081;42.706;23.306;2022-10-17T05:57:24;14.43;;;9.50;;
43933;SDS011;59081;42.706;23.306;2022-10-17T05:59:50;15.98;;;9.25;;
43933;SDS011;59081;42.706;23.306;2022-10-17T06:02:15;16.98;;;9.57;;
43933;SDS011;59081;42.706;23.306;2022-10-17T06:04:41;22.38;;;10.30;;
43933;SDS011;59081;42.706;23.306;2022-10-17T06:07:10;18.05;;;9.35;;
43933;SDS011;59081;42.706;23.306;2022-10-17T06:09:36;18.63;;;9.82;;
43933;SDS011;59081;42.706;23.306;2022-10-17T06:12:02;19.73;;;11.18;;
43933;SDS011;59081;42.706;23.306;2022-10-17T06:14:28;22.67;;;10.70;;
43933;SDS011;59081;42.706;23.306;2022-10-17T06:16:53;15.07;;;8.95;;
43933;SDS011;59081;42.706;23.306;2022-10-17T06:19:19;21.15;;;10.50;;
43933;SDS011;59081;42.706;23.306;2022-10-17T06:21:44;19.55;;;10.88;;
43933;SDS011;59081;42.706;23.306;2022-10-17T06:24:10;17.00;;;10.15;;
43933;SDS011;59081;42.706;23.306;2022-10-17T06:26:36;18.45;;;9.75;;
43933;SDS011;59081;42.706;23.306;2022-10-17T06:29:01;16.30;;;9.32;;
43933;SDS011;59081;42.706;23.306;2022-10-17T06:31:27;20.67;;;11.80;;
43933;SDS011;59081;42.706;23.306;2022-10-17T06:33:53;15.73;;;9.30;;
43933;SDS011;59081;42.706;23.306;2022-10-17T06:36:18;17.00;;;9.20;;
43933;SDS011;59081;42.706;23.306;2022-10-17T06:38:49;15.13;;;8.80;;
43933;SDS011;59081;42.706;23.306;2022-10-17T06:41:15;16.88;;;9.52;;
43933;SDS011;59081;42.706;23.306;2022-10-17T06:43:43;20.25;;;9.98;;
43933;SDS011;59081;42.706;23.306;2022-10-17T06:46:10;18.65;;;9.85;;
43933;SDS011;59081;42.706;23.306;2022-10-17T06:48:37;14.80;;;9.82;;
43933;SDS011;59081;42.706;23.306;2022-10-17T06:51:03;20.75;;;9.93;;
43933;SDS011;59081;42.706;23.306;2022-10-17T06:53:31;16.10;;;9.68;;
43933;SDS011;59081;42.706;23.306;2022-10-17T06:55:58;18.33;;;10.40;;
43933;SDS011;59081;42.706;23.306;2022-10-17T06:58:32;17.25;;;10.30;;
43933;SDS011;59081;42.706;23.306;2022-10-17T07:01:03;22.52;;;11.23;;
43933;SDS011;59081;42.706;23.306;2022-10-17T07:03:33;25.13;;;11.25;;
43933;SDS011;59081;42.706;23.306;2022-10-17T07:05:59;19.98;;;11.63;;
43933;SDS011;59081;42.706;23.306;2022-10-17T07:08:25;20.00;;;11.55;;
43933;SDS011;59081;42.706;23.306;2022-10-17T07:10:50;25.00;;;11.30;;
43933;SDS011;59081;42.706;23.306;2022-10-17T07:13:17;22.48;;;11.15;;
43933;SDS011;59081;42.706;23.306;2022-10-17T07:15:43;19.25;;;11.90;;
43933;SDS011;59081;42.706;23.306;2022-10-17T07:18:08;25.15;;;12.35;;
43933;SDS011;59081;42.706;23.306;2022-10-17T07:20:34;21.02;;;11.73;;
43933;SDS011;59081;42.706;23.306;2022-10-17T07:22:59;18.40;;;12.25;;
43933;SDS011;59081;42.706;23.306;2022-10-17T07:25:25;20.77;;;13.02;;
43933;SDS011;59081;42.706;23.306;2022-10-17T07:27:51;21.33;;;12.70;;
43933;SDS011;59081;42.706;23.306;2022-10-17T07:30:17;25.10;;;12.10;;
43933;SDS011;59081;42.706;23.306;2022-10-17T07:32:43;20.88;;;11.85;;
43933;SDS011;59081;42.706;23.306;2022-10-17T07:35:12;27.35;;;12.50;;
43933;SDS011;59081;42.706;23.306;2022-10-17T07:37:38;22.67;;;12.25;;
43933;SDS011;59081;42.706;23.306;2022-10-17T07:40:04;22.73;;;12.73;;
43933;SDS011;59081;42.706;23.306;2022-10-17T07:42:32;20.17;;;12.93;;
43933;SDS011;59081;42.706;23.306;2022-10-17T07:45:00;18.88;;;11.40;;
43933;SDS011;59081;42.706;23.306;2022-10-17T07:47:26;24.23;;;13.18;;
43933;SDS011;59081;42.706;23.306;2022-10-17T07:49:51;24.02;;;13.77;;
43933;SDS011;59081;42.706;23.306;2022-10-17T07:52:17;21.98;;;13.10;;
43933;SDS011;59081;42.706;23.306;2022-10-17T07:54:42;18.90;;;11.75;;
43933;SDS011;59081;42.706;23.306;2022-10-17T07:57:08;22.50;;;13.18;;
43933;SDS011;59081;42.706;23.306;2022-10-17T07:59:35;24.67;;;13.95;;
43933;SDS011;59081;42.706;23.306;2022-10-17T08:02:02;24.75;;;14.60;;
43933;SDS011;59081;42.706;23.306;2022-10-17T08:04:28;31.17;;;14.50;;
43933;SDS011;59081;42.706;23.306;2022-10-17T08:06:53;19.85;;;13.43;;
43933;SDS011;59081;42.706;23.306;2022-10-17T08:09:19;19.65;;;12.68;;
43933;SDS011;59081;42.706;23.306;2022-10-17T08:11:45;22.52;;;14.68;;
43933;SDS011;59081;42.706;23.306;2022-10-17T08:14:11;27.38;;;12.80;;
43933;SDS011;59081;42.706;23.306;2022-10-17T08:16:38;24.45;;;13.00;;
43933;SDS011;59081;42.706;23.306;2022-10-17T08:19:04;21.58;;;14.95;;
43933;SDS011;59081;42.706;23.306;2022-10-17T08:21:33;32.33;;;14.95;;
43933;SDS011;59081;42.706;23.306;2022-10-17T08:23:59;20.42;;;13.82;;
43933;SDS011;59081;42.706;23.306;2022-10-17T08:26:27;28.35;;;13.60;;
43933;SDS011;59081;42.706;23.306;2022-10-17T08:28:53;21.42;;;14.02;;
43933;SDS011;59081;42.706;23.306;2022-10-17T08:31:19;20.63;;;12.80;;
43933;SDS011;59081;42.706;23.306;2022-10-17T08:33:46;20.70;;;12.80;;
43933;SDS011;59081;42.706;23.306;2022-10-17T08:36:13;23.60;;;13.25;;
43933;SDS011;59081;42.706;23.306;2022-10-17T08:38:39;18.52;;;12.18;;
43933;SDS011;59081;42.706;23.306;2022-10-17T08:41:24;21.10;;;13.38;;
43933;SDS011;59081;42.706;23.306;2022-10-17T08:46:50;19.20;;;12.90;;
43933;SDS011;59081;42.706;23.306;2022-10-17T08:49:32;21.30;;;12.35;;
43933;SDS011;59081;42.706;23.306;2022-10-17T08:52:17;20.08;;;12.60;;
43933;SDS011;59081;42.706;23.306;2022-10-17T08:54:56;16.80;;;9.32;;
43933;SDS011;59081;42.706;23.306;2022-10-17T08:57:22;17.50;;;10.95;;
43933;SDS011;59081;42.706;23.306;2022-10-17T08:59:51;19.20;;;12.02;;
43933;SDS011;59081;42.706;23.306;2022-10-17T09:02:25;17.02;;;10.95;;
43933;SDS011;59081;42.706;23.306;2022-10-17T09:11:10;15.80;;;7.10;;
43933;SDS011;59081;42.706;23.306;2022-10-17T09:14:08;10.13;;;6.28;;
43933;SDS011;59081;42.706;23.306;2022-10-17T09:16:58;13.32;;;8.15;;
43933;SDS011;59081;42.706;23.306;2022-10-17T09:19:45;9.98;;;5.82;;
43933;SDS011;59081;42.706;23.306;2022-10-17T09:22:39;20.42;;;6.07;;
43933;SDS011;59081;42.706;23.306;2022-10-17T09:25:10;13.98;;;8.25;;
43933;SDS011;59081;42.706;23.306;2022-10-17T09:27:47;15.10;;;6.50;;
43933;SDS011;59081;42.706;23.306;2022-10-17T09:35:43;17.00;;;6.53;;
43933;SDS011;59081;42.706;23.306;2022-10-17T09:38:17;13.43;;;6.38;;
43933;SDS011;59081;42.706;23.306;2022-10-17T09:40:56;13.23;;;6.97;;
43933;SDS011;59081;42.706;23.306;2022-10-17T09:43:24;9.48;;;5.53;;
43933;SDS011;59081;42.706;23.306;2022-10-17T09:45:59;10.02;;;5.32;;
43933;SDS011;59081;42.706;23.306;2022-10-17T09:48:36;13.43;;;5.05;;
43933;SDS011;59081;42.706;23.306;2022-10-17T09:51:05;13.38;;;6.13;;
43933;SDS011;59081;42.706;23.306;2022-10-17T09:53:33;13.35;;;6.20;;
43933;SDS011;59081;42.706;23.306;2022-10-17T09:56:04;13.20;;;6.20;;
43933;SDS011;59081;42.706;23.306;2022-10-17T09:58:46;11.13;;;5.55;;
43933;SDS011;59081;42.706;23.306;2022-10-17T10:01:20;10.65;;;5.57;;
43933;SDS011;59081;42.706;23.306;2022-10-17T10:04:13;9.25;;;4.95;;
43933;SDS011;59081;42.706;23.306;2022-10-17T10:06:39;11.55;;;5.50;;
43933;SDS011;59081;42.706;23.306;2022-10-17T10:09:05;8.98;;;3.55;;
43933;SDS011;59081;42.706;23.306;2022-10-17T10:11:50;8.60;;;4.45;;
43933;SDS011;59081;42.706;23.306;2022-10-17T10:16:49;7.50;;;3.45;;
43933;SDS011;59081;42.706;23.306;2022-10-17T10:19:30;6.60;;;3.30;;
43933;SDS011;59081;42.706;23.306;2022-10-17T10:22:02;8.75;;;3.40;;
43933;SDS011;59081;42.706;23.306;2022-10-17T10:24:29;4.47;;;2.58;;
43933;SDS011;59081;42.706;23.306;2022-10-17T10:26:56;13.07;;;4.28;;
43933;SDS011;59081;42.706;23.306;2022-10-17T10:34:57;4.80;;;2.80;;
43933;SDS011;59081;42.706;23.306;2022-10-17T10:37:32;5.63;;;2.10;;
43933;SDS011;59081;42.706;23.306;2022-10-17T10:42:39;2.67;;;1.90;;
43933;SDS011;59081;42.706;23.306;2022-10-17T10:45:16;5.05;;;2.35;;
43933;SDS011;59081;42.706;23.306;2022-10-17T10:47:49;4.90;;;2.20;;
43933;SDS011;59081;42.706;23.306;2022-10-17T10:52:44;3.15;;;2.40;;
43933;SDS011;59081;42.706;23.306;2022-10-17T10:55:16;5.97;;;2.30;;
43933;SDS011;59081;42.706;23.306;2022-10-17T10:57:44;2.95;;;2.00;;
43933;SDS011;59081;42.706;23.306;2022-10-17T11:00:13;4.28;;;2.45;;
43933;SDS011;59081;42.706;23.306;2022-10-17T11:02:47;2.60;;;2.13;;
43933;SDS011;59081;42.706;23.306;2022-10-17T11:10:45;6.72;;;2.78;;
43933;SDS011;59081;42.706;23.306;2022-10-17T11:13:24;4.80;;;2.25;;
43933;SDS011;59081;42.706;23.306;2022-10-17T11:16:15;4.32;;;2.08;;
43933;SDS011;59081;42.706;23.306;2022-10-17T11:18:48;8.65;;;2.20;;
43933;SDS011;59081;42.706;23.306;2022-10-17T11:21:20;4.45;;;2.20;;
43933;SDS011;59081;42.706;23.306;2022-10-17T11:24:01;4.15;;;2.05;;
43933;SDS011;59081;42.706;23.306;2022-10-17T11:26:53;6.32;;;2.35;;
43933;SDS011;59081;42.706;23.306;2022-10-17T11:31:51;5.40;;;2.45;;
43933;SDS011;59081;42.706;23.306;2022-10-17T11:34:24;5.22;;;2.90;;
43933;SDS011;59081;42.706;23.306;2022-10-17T11:36:53;5.85;;;2.00;;
43933;SDS011;59081;42.706;23.306;2022-10-17T11:39:28;7.22;;;2.50;;
43933;SDS011;59081;42.706;23.306;2022-10-17T11:42:07;3.53;;;2.58;;
43933;SDS011;59081;42.706;23.306;2022-10-17T11:49:39;4.88;;;2.47;;
43933;SDS011;59081;42.706;23.306;2022-10-17T11:55:02;5.28;;;2.83;;
43933;SDS011;59081;42.706;23.306;2022-10-17T12:03:30;4.03;;;2.50;;
43933;SDS011;59081;42.706;23.306;2022-10-17T12:06:09;5.70;;;4.20;;
43933;SDS011;59081;42.706;23.306;2022-10-17T12:09:20;4.95;;;2.58;;
43933;SDS011;59081;42.706;23.306;2022-10-17T12:16:59;2.47;;;2.10;;
43933;SDS011;59081;42.706;23.306;2022-10-17T12:19:30;4.85;;;2.35;;
43933;SDS011;59081;42.706;23.306;2022-10-17T12:24:54;4.88;;;2.80;;
43933;SDS011;59081;42.706;23.306;2022-10-17T12:32:36;10.48;;;2.17;;
43933;SDS011;59081;42.706;23.306;2022-10-17T12:35:02;6.30;;;1.88;;
43933;SDS011;59081;42.706;23.306;2022-10-17T12:43:31;5.13;;;2.40;;
43933;SDS011;59081;42.706;23.306;2022-10-17T12:45:51;3.35;;;2.00;;
43933;SDS011;59081;42.706;23.306;2022-10-17T12:53:47;4.60;;;2.22;;
43933;SDS011;59081;42.706;23.306;2022-10-17T12:56:20;3.72;;;2.20;;
43933;SDS011;59081;42.706;23.306;2022-10-17T12:58:53;3.28;;;2.45;;
43933;SDS011;59081;42.706;23.306;2022-10-17T13:01:28;3.72;;;2.05;;
43933;SDS011;59081;42.706;23.306;2022-10-17T13:03:56;2.20;;;1.85;;
43933;SDS011;59081;42.706;23.306;2022-10-17T13:06:29;5.95;;;2.50;;
43933;SDS011;59081;42.706;23.306;2022-10-17T13:09:06;3.47;;;2.53;;
43933;SDS011;59081;42.706;23.306;2022-10-17T13:11:40;6.00;;;2.42;;
43933;SDS011;59081;42.706;23.306;2022-10-17T13:14:10;3.30;;;2.40;;
43933;SDS011;59081;42.706;23.306;2022-10-17T13:16:48;4.53;;;2.10;;
43933;SDS011;59081;42.706;23.306;2022-10-17T13:19:26;6.97;;;2.35;;
43933;SDS011;59081;42.706;23.306;2022-10-17T13:21:55;5.65;;;2.55;;
43933;SDS011;59081;42.706;23.306;2022-10-17T13:24:38;7.03;;;2.67;;
43933;SDS011;59081;42.706;23.306;2022-10-17T13:27:05;4.32;;;2.15;;
43933;SDS011;59081;42.706;23.306;2022-10-17T13:29:46;9.30;;;2.20;;
43933;SDS011;59081;42.706;23.306;2022-10-17T13:32:11;4.85;;;2.00;;
43933;SDS011;59081;42.706;23.306;2022-10-17T13:34:37;5.80;;;2.55;;
43933;SDS011;59081;42.706;23.306;2022-10-17T13:37:06;6.32;;;2.28;;
43933;SDS011;59081;42.706;23.306;2022-10-17T13:39:37;3.58;;;2.55;;
43933;SDS011;59081;42.706;23.306;2022-10-17T13:42:05;5.47;;;2.42;;
43933;SDS011;59081;42.706;23.306;2022-10-17T13:44:46;5.55;;;2.63;;
43933;SDS011;59081;42.706;23.306;2022-10-17T13:47:22;3.90;;;2.42;;
43933;SDS011;59081;42.706;23.306;2022-10-17T13:49:51;7.00;;;2.33;;
43933;SDS011;59081;42.706;23.306;2022-10-17T13:52:17;4.32;;;2.40;;
43933;SDS011;59081;42.706;23.306;2022-10-17T13:54:45;7.80;;;2.40;;
43933;SDS011;59081;42.706;23.306;2022-10-17T13:57:19;4.68;;;2.38;;
43933;SDS011;59081;42.706;23.306;2022-10-17T13:59:49;8.68;;;2.42;;
43933;SDS011;59081;42.706;23.306;2022-10-17T14:02:20;4.70;;;2.70;;
43933;SDS011;59081;42.706;23.306;2022-10-17T14:10:03;5.82;;;2.60;;
43933;SDS011;59081;42.706;23.306;2022-10-17T14:12:30;5.55;;;2.35;;
43933;SDS011;59081;42.706;23.306;2022-10-17T14:14:57;7.05;;;2.72;;
43933;SDS011;59081;42.706;23.306;2022-10-17T14:17:27;5.07;;;2.72;;
43933;SDS011;59081;42.706;23.306;2022-10-17T14:19:57;3.97;;;2.80;;
43933;SDS011;59081;42.706;23.306;2022-10-17T14:22:29;3.72;;;3.00;;
43933;SDS011;59081;42.706;23.306;2022-10-17T14:24:57;4.22;;;3.15;;
43933;SDS011;59081;42.706;23.306;2022-10-17T14:30:05;8.38;;;3.05;;
43933;SDS011;59081;42.706;23.306;2022-10-17T14:32:52;6.70;;;3.03;;
43933;SDS011;59081;42.706;23.306;2022-10-17T14:35:21;7.68;;;3.05;;
43933;SDS011;59081;42.706;23.306;2022-10-17T14:37:47;4.57;;;3.10;;
43933;SDS011;59081;42.706;23.306;2022-10-17T14:40:21;7.22;;;4.43;;
43933;SDS011;59081;42.706;23.306;2022-10-17T14:42:52;7.75;;;3.97;;
43933;SDS011;59081;42.706;23.306;2022-10-17T14:45:30;5.03;;;3.10;;
43933;SDS011;59081;42.706;23.306;2022-10-17T14:48:03;4.50;;;3.00;;
43933;SDS011;59081;42.706;23.306;2022-10-17T14:53:31;6.80;;;3.38;;
43933;SDS011;59081;42.706;23.306;2022-10-17T14:56:01;7.47;;;3.08;;
43933;SDS011;59081;42.706;23.306;2022-10-17T14:58:30;4.40;;;3.25;;
43933;SDS011;59081;42.706;23.306;2022-10-17T15:00:58;8.00;;;3.25;;
43933;SDS011;59081;42.706;23.306;2022-10-17T15:03:24;7.40;;;2.78;;
43933;SDS011;59081;42.706;23.306;2022-10-17T15:05:50;5.70;;;3.78;;
43933;SDS011;59081;42.706;23.306;2022-10-17T15:08:19;11.82;;;6.22;;
43933;SDS011;59081;42.706;23.306;2022-10-17T15:10:46;9.63;;;4.90;;
43933;SDS011;59081;42.706;23.306;2022-10-17T15:13:12;10.52;;;3.50;;
43933;SDS011;59081;42.706;23.306;2022-10-17T15:15:38;9.93;;;4.00;;
43933;SDS011;59081;42.706;23.306;2022-10-17T15:18:05;5.10;;;3.50;;
43933;SDS011;59081;42.706;23.306;2022-10-17T15:20:31;5.68;;;3.50;;
43933;SDS011;59081;42.706;23.306;2022-10-17T15:22:58;6.13;;;3.67;;
43933;SDS011;59081;42.706;23.306;2022-10-17T15:25:25;6.18;;;3.88;;
43933;SDS011;59081;42.706;23.306;2022-10-17T15:27:52;10.23;;;4.47;;
43933;SDS011;59081;42.706;23.306;2022-10-17T15:30:21;9.90;;;4.10;;
43933;SDS011;59081;42.706;23.306;2022-10-17T15:32:51;8.93;;;4.22;;
43933;SDS011;59081;42.706;23.306;2022-10-17T15:35:17;9.48;;;4.57;;
43933;SDS011;59081;42.706;23.306;2022-10-17T15:37:44;8.85;;;4.00;;
43933;SDS011;59081;42.706;23.306;2022-10-17T15:40:14;6.93;;;3.78;;
43933;SDS011;59081;42.706;23.306;2022-10-17T15:42:42;6.55;;;3.90;;
43933;SDS011;59081;42.706;23.306;2022-10-17T15:45:12;8.80;;;4.32;;
43933;SDS011;59081;42.706;23.306;2022-10-17T15:47:40;9.25;;;4.47;;
43933;SDS011;59081;42.706;23.306;2022-10-17T15:50:11;16.10;;;4.30;;
43933;SDS011;59081;42.706;23.306;2022-10-17T15:52:39;7.25;;;4.43;;
43933;SDS011;59081;42.706;23.306;2022-10-17T15:55:05;11.88;;;4.78;;
43933;SDS011;59081;42.706;23.306;2022-10-17T15:57:33;21.05;;;5.25;;
43933;SDS011;59081;42.706;23.306;2022-10-17T16:00:03;7.47;;;4.95;;
43933;SDS011;59081;42.706;23.306;2022-10-17T16:02:30;9.88;;;4.32;;
43933;SDS011;59081;42.706;23.306;2022-10-17T16:04:57;7.22;;;4.47;;
43933;SDS011;59081;42.706;23.306;2022-10-17T16:07:23;9.77;;;4.53;;
43933;SDS011;59081;42.706;23.306;2022-10-17T16:09:49;15.18;;;6.72;;
43933;SDS011;59081;42.706;23.306;2022-10-17T16:12:21;11.52;;;6.65;;
43933;SDS011;59081;42.706;23.306;2022-10-17T16:14:51;11.00;;;6.80;;
43933;SDS011;59081;42.706;23.306;2022-10-17T16:17:17;17.30;;;5.75;;
43933;SDS011;59081;42.706;23.306;2022-10-17T16:19:42;8.48;;;5.18;;
43933;SDS011;59081;42.706;23.306;2022-10-17T16:22:11;10.18;;;6.63;;
43933;SDS011;59081;42.706;23.306;2022-10-17T16:24:44;13.55;;;5.38;;
43933;SDS011;59081;42.706;23.306;2022-10-17T16:27:09;9.27;;;4.72;;
43933;SDS011;59081;42.706;23.306;2022-10-17T16:29:35;18.70;;;7.85;;